createdAt,value
2023-05-14T00:01:18.983Z,88.97
2023-05-14T00:03:48.544Z,89.69
2023-05-14T00:06:15.730Z,89.65
2023-05-14T00:08:42.921Z,89.21
2023-05-14T00:11:09.999Z,88.74
2023-05-14T00:13:37.236Z,89.34
2023-05-14T00:16:04.576Z,90.16
2023-05-14T00:18:31.926Z,89.45
2023-05-14T00:20:59.100Z,89.35
2023-05-14T00:23:26.095Z,89.61
2023-05-14T00:25:53.108Z,90.60
2023-05-14T00:28:20.785Z,90.04
2023-05-14T00:30:47.802Z,89.94
2023-05-14T00:33:15.054Z,89.63
2023-05-14T00:35:42.135Z,89.91
2023-05-14T00:38:09.138Z,89.61
2023-05-14T00:40:36.325Z,90.06
2023-05-14T00:43:04.017Z,89.92
2023-05-14T00:45:31.364Z,90.48
2023-05-14T00:47:58.531Z,91.09
2023-05-14T00:50:26.333Z,91.17
2023-05-14T00:52:54.038Z,91.29
2023-05-14T00:55:22.769Z,90.99
2023-05-14T00:57:51.214Z,90.89
2023-05-14T01:00:21.762Z,90.64
2023-05-14T01:02:49.056Z,90.79
2023-05-14T01:05:16.252Z,91.87
2023-05-14T01:07:56.102Z,91.58
2023-05-14T01:10:33.161Z,91.92
2023-05-14T01:13:07.375Z,92.17
2023-05-14T01:15:36.523Z,91.99
2023-05-14T01:18:09.751Z,91.38
2023-05-14T01:20:37.157Z,91.18
2023-05-14T01:23:04.198Z,91.77
2023-05-14T01:25:31.983Z,91.84
2023-05-14T01:28:08.736Z,91.85
2023-05-14T01:30:40.540Z,91.82
2023-05-14T01:33:11.431Z,91.88
2023-05-14T01:35:38.820Z,91.82
2023-05-14T01:38:09.454Z,91.59
2023-05-14T01:40:37.653Z,91.60
2023-05-14T01:43:05.327Z,91.42
2023-05-14T01:45:36.403Z,91.95
2023-05-14T01:48:04.972Z,92.27
2023-05-14T01:50:32.017Z,92.08
2023-05-14T01:52:59.013Z,92.13
2023-05-14T01:55:26.038Z,92.26
2023-05-14T01:57:53.513Z,92.13
2023-05-14T02:00:21.422Z,91.42
2023-05-14T02:02:48.731Z,91.18
2023-05-14T02:05:15.776Z,91.63
2023-05-14T02:07:45.042Z,91.27
2023-05-14T02:10:14.364Z,91.43
2023-05-14T02:12:41.523Z,91.40
2023-05-14T02:15:11.229Z,91.56
2023-05-14T02:17:38.492Z,91.65
2023-05-14T02:20:06.577Z,91.59
2023-05-14T02:22:33.570Z,91.82
2023-05-14T02:25:01.368Z,91.72
2023-05-14T02:27:28.454Z,91.62
2023-05-14T02:29:56.865Z,91.48
2023-05-14T02:32:23.908Z,91.58
2023-05-14T02:34:51.073Z,91.78
2023-05-14T02:37:18.384Z,91.69
2023-05-14T02:39:45.555Z,91.43
2023-05-14T02:42:12.483Z,91.78
2023-05-14T02:44:42.562Z,91.94
2023-05-14T02:47:09.712Z,91.77
2023-05-14T02:49:36.792Z,91.58
2023-05-14T02:52:03.891Z,91.93
2023-05-14T02:54:31.922Z,92.00
2023-05-14T02:56:58.921Z,92.83
2023-05-14T02:59:25.947Z,93.29
2023-05-14T03:01:53.468Z,93.24
2023-05-14T03:04:20.845Z,92.84
2023-05-14T03:06:47.816Z,92.91
2023-05-14T03:09:14.914Z,92.45
2023-05-14T03:11:41.973Z,92.84
2023-05-14T03:14:09.002Z,93.55
2023-05-14T03:16:36.089Z,93.02
2023-05-14T03:19:03.219Z,93.34
2023-05-14T03:21:30.266Z,93.28
2023-05-14T03:23:57.282Z,93.44
2023-05-14T03:26:24.366Z,93.45
2023-05-14T03:28:51.414Z,93.63
2023-05-14T03:31:18.513Z,93.34
2023-05-14T03:33:45.697Z,92.26
2023-05-14T03:36:12.650Z,92.06
2023-05-14T03:38:39.806Z,92.07
2023-05-14T03:41:06.889Z,91.95
2023-05-14T03:43:33.925Z,92.11
2023-05-14T03:46:00.896Z,92.53
2023-05-14T03:48:28.014Z,92.13
2023-05-14T03:50:55.341Z,91.88
2023-05-14T03:53:22.318Z,92.13
2023-05-14T03:55:49.309Z,92.13
2023-05-14T03:58:16.276Z,92.40
2023-05-14T04:00:44.244Z,92.56
2023-05-14T04:03:12.115Z,92.90
2023-05-14T04:05:39.270Z,93.37
2023-05-14T04:08:06.344Z,93.42
2023-05-14T04:10:33.413Z,93.45
2023-05-14T04:13:01.133Z,93.45
2023-05-14T04:15:28.247Z,93.14
2023-05-14T04:17:55.301Z,92.65
2023-05-14T04:20:22.416Z,92.72
2023-05-14T04:22:49.480Z,92.55
2023-05-14T04:25:16.716Z,92.56
2023-05-14T04:27:43.793Z,93.09
2023-05-14T04:30:11.205Z,93.07
2023-05-14T04:32:38.328Z,93.51
2023-05-14T04:35:06.222Z,93.74
2023-05-14T04:37:33.452Z,93.79
2023-05-14T04:40:01.195Z,94.33
2023-05-14T04:42:28.149Z,94.02
2023-05-14T04:44:55.111Z,93.53
2023-05-14T04:47:22.461Z,93.26
2023-05-14T04:49:49.528Z,93.00
2023-05-14T04:52:16.724Z,92.70
2023-05-14T04:54:43.814Z,92.67
2023-05-14T04:57:10.799Z,92.64
2023-05-14T04:59:37.829Z,93.12
2023-05-14T05:02:05.084Z,93.45
2023-05-14T05:04:32.295Z,92.98
2023-05-14T05:06:59.261Z,93.29
2023-05-14T05:09:26.305Z,93.12
2023-05-14T05:11:53.318Z,93.23
2023-05-14T05:14:20.306Z,93.32
2023-05-14T05:16:47.947Z,92.64
2023-05-14T05:19:15.044Z,92.90
2023-05-14T05:21:42.125Z,93.05
2023-05-14T05:24:09.074Z,92.83
2023-05-14T05:26:37.193Z,93.31
2023-05-14T05:29:05.134Z,92.62
2023-05-14T05:31:34.761Z,92.65
2023-05-14T05:34:04.105Z,92.26
2023-05-14T05:36:31.882Z,92.65
2023-05-14T05:38:58.822Z,92.53
2023-05-14T05:41:26.912Z,92.48
2023-05-14T05:43:53.987Z,92.27
2023-05-14T05:46:20.975Z,92.24
2023-05-14T05:48:48.024Z,92.84
2023-05-14T05:51:15.156Z,93.25
2023-05-14T05:53:42.214Z,92.95
2023-05-14T05:56:09.389Z,93.12
2023-05-14T05:58:36.441Z,92.41
2023-05-14T06:01:03.379Z,92.23
2023-05-14T06:03:30.342Z,92.00
2023-05-14T06:05:57.383Z,91.79
2023-05-14T06:08:24.637Z,91.85
2023-05-14T06:10:51.664Z,92.05
2023-05-14T06:13:18.648Z,92.02
2023-05-14T06:15:45.941Z,91.94
2023-05-14T06:18:12.946Z,92.17
2023-05-14T06:20:41.836Z,92.17
2023-05-14T06:23:08.878Z,91.91
2023-05-14T06:25:35.855Z,91.09
2023-05-14T06:28:02.851Z,91.27
2023-05-14T06:30:29.857Z,91.42
2023-05-14T06:32:57.439Z,91.12
2023-05-14T06:35:24.426Z,90.92
2023-05-14T06:37:51.770Z,90.59
2023-05-14T06:40:19.362Z,90.40
2023-05-14T06:42:46.334Z,90.47
2023-05-14T06:45:13.440Z,90.42
2023-05-14T06:47:40.607Z,91.09
2023-05-14T06:50:10.175Z,91.10
2023-05-14T06:52:38.217Z,91.71
2023-05-14T06:55:05.700Z,91.48
2023-05-14T06:57:34.423Z,91.56
2023-05-14T07:00:03.192Z,91.42
2023-05-14T07:02:30.984Z,91.14
2023-05-14T07:04:58.992Z,91.05
2023-05-14T07:07:26.250Z,90.54
2023-05-14T07:09:53.471Z,90.35
2023-05-14T07:12:20.626Z,90.50
2023-05-14T07:14:47.613Z,90.80
2023-05-14T07:17:14.617Z,91.71
2023-05-14T07:19:41.751Z,91.18
2023-05-14T07:22:08.889Z,91.12
2023-05-14T07:24:36.030Z,91.41
2023-05-14T07:27:03.381Z,91.20
2023-05-14T07:29:31.262Z,90.04
2023-05-14T07:31:58.246Z,90.56
2023-05-14T07:34:25.366Z,90.55
2023-05-14T07:36:52.509Z,90.15
2023-05-14T07:39:19.660Z,90.09
2023-05-14T07:41:46.708Z,90.41
2023-05-14T07:44:13.773Z,90.67
2023-05-14T07:46:41.272Z,90.43
2023-05-14T07:49:08.460Z,90.57
2023-05-14T07:51:35.667Z,89.57
2023-05-14T07:54:02.659Z,88.45
2023-05-14T07:56:29.785Z,88.85
2023-05-14T07:58:56.892Z,89.16
2023-05-14T08:01:24.150Z,88.49
2023-05-14T08:03:51.335Z,88.75
2023-05-14T08:06:18.468Z,88.11
2023-05-14T08:08:45.775Z,87.84
2023-05-14T08:11:15.468Z,87.88
2023-05-14T08:13:42.578Z,88.10
2023-05-14T08:16:09.700Z,87.81
2023-05-14T08:18:36.785Z,85.72
2023-05-14T08:21:04.085Z,85.58
2023-05-14T08:23:31.257Z,85.66
2023-05-14T08:25:59.540Z,85.89
2023-05-14T08:28:26.594Z,85.98
2023-05-14T08:30:53.991Z,85.62
2023-05-14T08:33:21.090Z,85.37
2023-05-14T08:35:48.209Z,85.34
2023-05-14T08:38:15.284Z,86.08
2023-05-14T08:40:42.871Z,85.87
2023-05-14T08:43:12.592Z,85.66
2023-05-14T08:45:40.755Z,84.89
2023-05-14T08:48:11.745Z,84.08
2023-05-14T08:50:38.843Z,84.06
2023-05-14T08:53:07.317Z,84.16
2023-05-14T08:55:35.658Z,83.94
2023-05-14T08:58:02.785Z,84.04
2023-05-14T09:00:30.066Z,83.32
2023-05-14T09:02:58.718Z,83.25
2023-05-14T09:05:26.355Z,83.93
2023-05-14T09:07:53.566Z,81.92
2023-05-14T09:10:21.837Z,82.26
2023-05-14T09:12:49.101Z,81.64
2023-05-14T09:15:16.326Z,80.55
2023-05-14T09:17:44.520Z,79.93
2023-05-14T09:20:13.416Z,79.44
2023-05-14T09:22:40.933Z,79.26
2023-05-14T09:25:11.367Z,77.96
2023-05-14T09:27:39.354Z,78.02
2023-05-14T09:30:08.516Z,77.28
2023-05-14T09:32:37.527Z,77.49
2023-05-14T09:35:10.937Z,76.25
2023-05-14T09:37:38.129Z,76.60
2023-05-14T09:40:09.395Z,76.68
2023-05-14T09:42:36.648Z,76.38
2023-05-14T09:45:05.430Z,77.26
2023-05-14T09:47:33.234Z,77.16
2023-05-14T09:50:00.532Z,77.13
2023-05-14T09:52:28.110Z,76.08
2023-05-14T09:54:55.804Z,74.73
2023-05-14T09:57:23.639Z,75.25
2023-05-14T09:59:51.005Z,74.63
2023-05-14T10:02:24.613Z,73.19
2023-05-14T10:04:54.407Z,73.70
2023-05-14T10:07:27.013Z,72.42
2023-05-14T10:10:00.209Z,72.14
2023-05-14T10:12:31.266Z,71.86
2023-05-14T10:15:01.961Z,71.60
2023-05-14T10:17:32.482Z,71.91
2023-05-14T10:20:03.029Z,71.96
2023-05-14T10:22:35.190Z,70.93
2023-05-14T10:25:04.295Z,70.39
2023-05-14T10:27:32.266Z,70.01
2023-05-14T10:29:59.522Z,69.19
2023-05-14T10:32:26.991Z,69.87
2023-05-14T10:34:54.525Z,70.57
2023-05-14T10:37:25.882Z,70.06
2023-05-14T10:39:54.244Z,68.31
2023-05-14T10:42:24.646Z,67.74
2023-05-14T10:44:57.102Z,67.58
2023-05-14T10:47:26.594Z,68.30
2023-05-14T10:49:56.341Z,68.10
2023-05-14T10:52:26.134Z,68.00
2023-05-14T10:54:56.664Z,67.67
2023-05-14T10:57:26.767Z,68.25
2023-05-14T10:59:56.148Z,69.16
2023-05-14T11:02:27.288Z,69.17
2023-05-14T11:04:59.437Z,69.58
2023-05-14T11:07:33.020Z,68.67
2023-05-14T11:10:04.782Z,68.27
2023-05-14T11:12:32.901Z,68.81
2023-05-14T11:15:01.294Z,68.18
2023-05-14T11:17:29.853Z,67.49
2023-05-14T11:19:57.786Z,66.19
2023-05-14T11:22:25.662Z,65.85
2023-05-14T11:24:53.032Z,65.71
2023-05-14T11:27:21.895Z,65.90
2023-05-14T11:29:49.551Z,66.25
2023-05-14T11:32:17.679Z,66.85
2023-05-14T11:34:46.510Z,65.50
2023-05-14T11:37:15.629Z,64.64
2023-05-14T11:39:49.424Z,64.15
2023-05-14T11:42:19.191Z,64.24
2023-05-14T11:44:49.362Z,64.21
2023-05-14T11:47:18.724Z,64.99
2023-05-14T11:49:46.856Z,64.87
2023-05-14T11:52:16.009Z,64.57
2023-05-14T11:54:44.408Z,63.82
2023-05-14T11:57:13.900Z,63.76
2023-05-14T11:59:41.598Z,63.53
2023-05-14T12:02:13.263Z,61.85
2023-05-14T12:04:42.223Z,61.97
2023-05-14T12:07:13.116Z,61.66
2023-05-14T12:09:45.270Z,60.85
2023-05-14T12:12:13.524Z,59.50
2023-05-14T12:14:43.261Z,59.19
2023-05-14T12:17:13.847Z,59.08
2023-05-14T12:19:43.227Z,58.39
2023-05-14T12:22:14.270Z,57.51
2023-05-14T12:24:41.604Z,57.39
2023-05-14T12:27:10.520Z,57.50
2023-05-14T12:29:40.022Z,56.91
2023-05-14T12:32:10.214Z,57.00
2023-05-14T12:34:39.159Z,56.82
2023-05-14T12:37:07.670Z,57.50
2023-05-14T12:39:35.451Z,57.59
2023-05-14T12:42:02.702Z,56.19
2023-05-14T12:44:29.923Z,56.24
2023-05-14T12:46:58.068Z,56.56
2023-05-14T12:49:25.451Z,56.20
2023-05-14T12:52:04.463Z,56.66
2023-05-14T12:54:43.024Z,55.82
2023-05-14T12:57:13.348Z,53.91
2023-05-14T12:59:41.534Z,53.56
2023-05-14T13:02:09.045Z,54.03
2023-05-14T13:04:37.604Z,54.42
2023-05-14T13:07:05.155Z,54.70
2023-05-14T13:09:32.446Z,54.05
2023-05-14T13:11:59.989Z,52.56
2023-05-14T13:14:27.217Z,52.79
2023-05-14T13:16:54.644Z,53.58
2023-05-14T13:19:21.969Z,53.10
2023-05-14T13:21:49.187Z,52.70
2023-05-14T13:24:17.792Z,52.83
2023-05-14T13:26:45.346Z,52.11
2023-05-14T13:29:12.861Z,52.79
2023-05-14T13:31:40.103Z,52.77
2023-05-14T13:34:07.346Z,52.72
2023-05-14T13:36:39.893Z,52.20
2023-05-14T13:39:07.548Z,51.87
2023-05-14T13:41:36.164Z,51.61
2023-05-14T13:44:03.451Z,51.92
2023-05-14T13:46:30.798Z,51.60
2023-05-14T13:48:58.192Z,51.78
2023-05-14T13:51:25.924Z,51.91
2023-05-14T13:56:21.928Z,53.35
2023-05-14T13:58:49.643Z,53.54
2023-05-14T14:01:17.126Z,52.31
2023-05-14T14:03:44.386Z,52.34
2023-05-14T14:06:11.614Z,52.42
2023-05-14T14:08:39.040Z,52.31
2023-05-14T14:11:06.356Z,52.82
2023-05-14T14:13:33.688Z,53.70
2023-05-14T14:16:03.433Z,53.08
2023-05-14T14:18:30.790Z,52.68
2023-05-14T14:20:58.264Z,53.39
2023-05-14T14:23:25.670Z,53.67
2023-05-14T14:25:52.900Z,53.73
2023-05-14T14:28:20.079Z,55.09
2023-05-14T14:30:47.615Z,55.83
2023-05-14T14:33:14.977Z,55.74
2023-05-14T14:35:42.291Z,56.39
2023-05-14T14:38:09.895Z,56.53
2023-05-14T14:40:39.286Z,56.55
2023-05-14T14:43:07.136Z,56.61
2023-05-14T14:45:34.737Z,56.44
2023-05-14T14:48:08.417Z,55.64
2023-05-14T14:50:35.675Z,56.19
2023-05-14T14:53:02.927Z,56.17
2023-05-14T14:55:30.213Z,55.79
2023-05-14T14:57:57.594Z,56.12
2023-05-14T15:00:24.830Z,56.06
2023-05-14T15:02:52.154Z,56.79
2023-05-14T15:05:19.731Z,55.61
2023-05-14T15:07:47.224Z,55.15
2023-05-14T15:10:14.901Z,55.76
2023-05-14T15:12:44.340Z,56.06
2023-05-14T15:15:11.779Z,55.19
2023-05-14T15:17:39.338Z,55.74
2023-05-14T15:20:07.772Z,56.03
2023-05-14T15:22:35.056Z,55.50
2023-05-14T15:25:02.434Z,55.17
2023-05-14T15:27:29.598Z,55.28
2023-05-14T15:29:56.926Z,55.32
2023-05-14T15:32:27.575Z,56.64
2023-05-14T15:34:56.138Z,55.32
2023-05-14T15:37:25.309Z,55.83
2023-05-14T15:39:52.686Z,55.26
2023-05-14T15:42:22.967Z,54.88
2023-05-14T15:44:50.442Z,54.59
2023-05-14T15:47:17.730Z,54.61
2023-05-14T15:49:45.009Z,55.45
2023-05-14T15:52:12.383Z,54.86
2023-05-14T15:54:39.839Z,54.81
2023-05-14T15:57:07.170Z,54.68
2023-05-14T15:59:37.325Z,55.19
2023-05-14T16:02:04.720Z,55.69
2023-05-14T16:04:32.211Z,55.84
2023-05-14T16:07:03.106Z,55.74
2023-05-14T16:09:30.857Z,55.03
2023-05-14T16:11:58.103Z,55.01
2023-05-14T16:14:25.398Z,54.52
2023-05-14T16:16:54.242Z,54.97
2023-05-14T16:19:22.114Z,54.77
2023-05-14T16:21:49.295Z,54.88
2023-05-14T16:24:18.852Z,54.27
2023-05-14T16:26:46.308Z,54.70
2023-05-14T16:29:13.767Z,53.92
2023-05-14T16:31:41.290Z,51.80
2023-05-14T16:34:08.457Z,50.17
2023-05-14T16:36:35.774Z,50.34
2023-05-14T16:41:33.163Z,49.58
2023-05-14T16:44:00.448Z,48.86
2023-05-14T16:46:29.641Z,47.28
2023-05-14T16:48:57.412Z,47.10
2023-05-14T16:51:24.724Z,46.29
2023-05-14T16:53:52.299Z,47.27
2023-05-14T16:56:19.858Z,47.29
2023-05-14T16:58:47.057Z,47.30
2023-05-14T17:01:14.246Z,47.68
2023-05-14T17:03:42.152Z,47.85
2023-05-14T17:06:10.576Z,48.52
2023-05-14T17:08:37.818Z,48.83
2023-05-14T17:11:06.131Z,49.73
2023-05-14T17:13:34.146Z,50.00
2023-05-14T17:16:03.995Z,50.12
2023-05-14T17:18:33.030Z,50.02
2023-05-14T17:21:00.450Z,50.78
2023-05-14T17:23:27.641Z,51.88
2023-05-14T17:25:56.918Z,52.23
2023-05-14T17:28:24.891Z,53.77
2023-05-14T17:30:52.520Z,54.23
2023-05-14T17:33:19.761Z,53.92
2023-05-14T17:35:47.173Z,54.12
2023-05-14T17:38:14.582Z,54.26
2023-05-14T17:40:41.945Z,54.45
2023-05-14T17:43:09.469Z,54.88
2023-05-14T17:45:50.213Z,56.50
2023-05-14T17:48:20.932Z,57.43
2023-05-14T17:50:48.219Z,57.78
2023-05-14T17:53:15.755Z,57.96
2023-05-14T17:55:44.038Z,58.67
2023-05-14T17:58:13.767Z,58.81
2023-05-14T18:00:41.709Z,60.18
2023-05-14T18:03:10.791Z,60.46
2023-05-14T18:05:38.221Z,60.21
2023-05-14T18:08:06.054Z,60.19
2023-05-14T18:10:33.238Z,59.87
2023-05-14T18:13:02.366Z,59.59
2023-05-14T18:15:31.801Z,59.01
2023-05-14T18:17:59.488Z,58.09
2023-05-14T18:20:26.833Z,57.60
2023-05-14T18:22:54.011Z,55.77
2023-05-14T18:25:21.200Z,55.16
2023-05-14T18:27:48.482Z,54.28
2023-05-14T18:30:16.454Z,53.23
2023-05-14T18:32:45.180Z,52.65
2023-05-14T18:35:15.978Z,54.62
2023-05-14T18:37:43.290Z,53.82
2023-05-14T18:40:11.602Z,53.01
2023-05-14T18:42:39.040Z,52.87
2023-05-14T18:45:06.872Z,52.12
2023-05-14T18:47:34.903Z,52.61
2023-05-14T18:50:02.355Z,51.93
2023-05-14T18:52:30.020Z,53.86
2023-05-14T18:54:57.398Z,52.98
2023-05-14T18:57:27.735Z,52.87
2023-05-14T18:59:57.617Z,52.25
2023-05-14T19:02:24.939Z,53.45
2023-05-14T19:04:53.256Z,53.53
2023-05-14T19:07:21.876Z,53.74
2023-05-14T19:09:49.782Z,53.82
2023-05-14T19:12:17.420Z,54.41
2023-05-14T19:14:44.785Z,53.57
2023-05-14T19:17:12.192Z,54.20
2023-05-14T19:19:39.816Z,54.58
2023-05-14T19:22:07.518Z,54.31
2023-05-14T19:24:34.870Z,54.83
2023-05-14T19:27:02.273Z,56.64
2023-05-14T19:29:29.569Z,56.25
2023-05-14T19:31:56.999Z,56.04
2023-05-14T19:34:24.562Z,55.50
2023-05-14T19:36:51.852Z,54.83
2023-05-14T19:39:19.157Z,55.68
2023-05-14T19:41:46.420Z,55.78
2023-05-14T19:44:13.736Z,54.94
2023-05-14T19:46:41.118Z,54.86
2023-05-14T19:49:08.388Z,55.19
2023-05-14T19:51:35.595Z,55.23
2023-05-14T19:54:02.931Z,54.43
2023-05-14T19:56:30.358Z,54.78
2023-05-14T19:58:57.583Z,55.94
2023-05-14T20:01:24.777Z,55.78
2023-05-14T20:03:52.018Z,55.19
2023-05-14T20:06:19.311Z,55.08
2023-05-14T20:08:46.887Z,56.01
2023-05-14T20:11:15.970Z,55.69
2023-05-14T20:13:43.331Z,55.69
2023-05-14T20:16:10.694Z,55.40
2023-05-14T20:18:38.155Z,55.64
2023-05-14T20:21:05.938Z,56.36
2023-05-14T20:23:34.110Z,56.21
2023-05-14T20:26:03.033Z,56.30
2023-05-14T20:28:31.047Z,56.24
2023-05-14T20:31:00.581Z,56.54
2023-05-14T20:33:29.403Z,56.19
2023-05-14T20:35:57.081Z,56.42
2023-05-14T20:38:26.075Z,56.43
2023-05-14T20:40:53.340Z,56.56
2023-05-14T20:43:20.764Z,56.29
2023-05-14T20:45:48.104Z,56.01
2023-05-14T20:48:16.718Z,56.15
2023-05-14T20:50:44.711Z,56.92
2023-05-14T20:53:12.037Z,56.41
2023-05-14T20:55:39.860Z,56.05
2023-05-14T20:58:07.381Z,56.38
2023-05-14T21:00:34.905Z,56.94
2023-05-14T21:03:02.253Z,57.22
2023-05-14T21:05:29.776Z,56.64
2023-05-14T21:07:57.225Z,56.65
2023-05-14T21:10:24.727Z,56.60
2023-05-14T21:12:52.708Z,57.91
2023-05-14T21:15:19.894Z,57.89
2023-05-14T21:17:47.299Z,57.31
2023-05-14T21:20:15.840Z,57.50
2023-05-14T21:22:43.078Z,57.51
2023-05-14T21:25:10.812Z,58.36
2023-05-14T21:27:38.163Z,59.15
2023-05-14T21:30:06.407Z,59.06
2023-05-14T21:32:33.676Z,58.33
2023-05-14T21:35:00.993Z,58.37
2023-05-14T21:37:28.446Z,58.95
2023-05-14T21:39:55.711Z,59.69
2023-05-14T21:42:22.952Z,59.45
2023-05-14T21:44:50.391Z,59.21
2023-05-14T21:47:23.080Z,59.70
2023-05-14T21:49:52.916Z,59.81
2023-05-14T21:52:21.760Z,60.28
2023-05-14T21:54:49.067Z,60.75
2023-05-14T21:57:16.453Z,60.31
2023-05-14T21:59:43.713Z,60.22
2023-05-14T22:02:10.981Z,60.61
2023-05-14T22:04:38.470Z,60.36
2023-05-14T22:07:05.766Z,61.11
2023-05-14T22:09:32.964Z,60.92
2023-05-14T22:12:00.317Z,60.59
2023-05-14T22:14:27.670Z,60.12
2023-05-14T22:16:55.254Z,60.66
2023-05-14T22:19:23.028Z,60.52
2023-05-14T22:21:50.282Z,60.03
2023-05-14T22:24:17.599Z,59.81
2023-05-14T22:26:44.900Z,60.11
2023-05-14T22:29:12.176Z,60.60
2023-05-14T22:31:39.578Z,60.32
2023-05-14T22:34:06.967Z,61.37
2023-05-14T22:36:34.823Z,61.22
2023-05-14T22:39:02.205Z,61.15
2023-05-14T22:41:29.878Z,61.23
2023-05-14T22:43:57.238Z,61.26
2023-05-14T22:46:24.777Z,61.10
2023-05-14T22:48:52.137Z,60.86
2023-05-14T22:51:19.464Z,60.78
2023-05-14T22:53:47.639Z,60.49
2023-05-14T22:56:15.847Z,61.01
2023-05-14T22:58:43.017Z,61.27
2023-05-14T23:01:10.368Z,61.96
2023-05-14T23:03:37.572Z,61.41
2023-05-14T23:06:05.039Z,61.54
2023-05-14T23:08:32.298Z,61.71
2023-05-14T23:10:59.482Z,61.75
2023-05-14T23:13:26.823Z,62.05
2023-05-14T23:15:54.196Z,63.53
2023-05-14T23:18:21.681Z,63.51
2023-05-14T23:20:49.221Z,63.01
2023-05-14T23:23:16.457Z,62.93
2023-05-14T23:25:43.809Z,63.72
2023-05-14T23:28:11.308Z,63.63
2023-05-14T23:30:38.565Z,63.50
2023-05-14T23:33:06.139Z,64.03
2023-05-14T23:35:33.491Z,64.44
2023-05-14T23:38:00.675Z,64.05
2023-05-14T23:40:27.839Z,63.99
2023-05-14T23:42:55.155Z,63.72
2023-05-14T23:45:22.545Z,64.27
2023-05-14T23:47:50.158Z,64.33
2023-05-14T23:50:17.592Z,64.68
2023-05-14T23:52:44.829Z,65.56
2023-05-14T23:55:12.126Z,65.54
2023-05-14T23:57:39.821Z,65.60
